sensor_id;sensor_type;location;lat;lon;timestamp;pressure;altitude;pressure_sealevel;temperature;humidity
72414;BME280;60995;52.154;4.498;2023-04-05T00:00:45;102548.44;;;5.77;67.71
72414;BME280;60995;52.154;4.498;2023-04-05T00:03:12;102545.63;;;5.80;67.26
72414;BME280;60995;52.154;4.498;2023-04-05T00:05:36;102530.66;;;5.73;67.54
72414;BME280;60995;52.154;4.498;2023-04-05T00:07:57;102525.88;;;5.80;67.06
72414;BME280;60995;52.154;4.498;2023-04-05T00:10:17;102519.75;;;5.76;67.51
72414;BME280;60995;52.154;4.498;2023-04-05T00:12:36;102529.56;;;5.77;67.41
72414;BME280;60995;52.154;4.498;2023-04-05T00:15:06;102524.56;;;5.68;67.88
72414;BME280;60995;52.154;4.498;2023-04-05T00:17:26;102538.00;;;5.70;67.83
72414;BME280;60995;52.154;4.498;2023-04-05T00:19:46;102529.59;;;5.55;68.07
72414;BME280;60995;52.154;4.498;2023-04-05T00:22:06;102529.28;;;5.63;67.68
72414;BME280;60995;52.154;4.498;2023-04-05T00:24:28;102518.78;;;5.57;67.54
72414;BME280;60995;52.154;4.498;2023-04-05T00:26:45;102510.25;;;5.68;67.80
72414;BME280;60995;52.154;4.498;2023-04-05T00:29:02;102521.88;;;5.68;67.42
72414;BME280;60995;52.154;4.498;2023-04-05T00:31:20;102519.47;;;5.62;67.32
72414;BME280;60995;52.154;4.498;2023-04-05T00:33:42;102518.78;;;5.57;67.53
72414;BME280;60995;52.154;4.498;2023-04-05T00:36:11;102532.28;;;5.55;67.36
72414;BME280;60995;52.154;4.498;2023-04-05T00:38:37;102520.84;;;5.50;67.73
72414;BME280;60995;52.154;4.498;2023-04-05T00:41:05;102521.78;;;5.49;67.66
72414;BME280;60995;52.154;4.498;2023-04-05T00:43:32;102520.09;;;5.46;67.49
72414;BME280;60995;52.154;4.498;2023-04-05T00:45:49;102509.63;;;5.61;67.20
72414;BME280;60995;52.154;4.498;2023-04-05T00:48:10;102502.50;;;5.60;66.21
72414;BME280;60995;52.154;4.498;2023-04-05T00:50:33;102512.56;;;5.55;66.84
72414;BME280;60995;52.154;4.498;2023-04-05T00:53:02;102510.66;;;5.36;67.22
72414;BME280;60995;52.154;4.498;2023-04-05T00:55:24;102510.13;;;5.49;66.68
72414;BME280;60995;52.154;4.498;2023-04-05T00:57:43;102502.63;;;5.35;67.49
72414;BME280;60995;52.154;4.498;2023-04-05T01:00:06;102510.66;;;5.36;67.39
72414;BME280;60995;52.154;4.498;2023-04-05T01:02:33;102504.19;;;5.40;67.01
72414;BME280;60995;52.154;4.498;2023-04-05T01:05:01;102503.63;;;5.32;67.30
72414;BME280;60995;52.154;4.498;2023-04-05T01:07:30;102499.31;;;5.28;67.50
72414;BME280;60995;52.154;4.498;2023-04-05T01:09:58;102501.63;;;5.37;66.77
72414;BME280;60995;52.154;4.498;2023-04-05T01:12:18;102499.34;;;5.49;65.87
72414;BME280;60995;52.154;4.498;2023-04-05T01:14:47;102495.66;;;5.51;66.36
72414;BME280;60995;52.154;4.498;2023-04-05T01:17:08;102497.06;;;5.39;65.77
72414;BME280;60995;52.154;4.498;2023-04-05T01:19:31;102492.88;;;5.32;66.15
72414;BME280;60995;52.154;4.498;2023-04-05T01:33:35;102481.50;;;5.25;67.03
72414;BME280;60995;52.154;4.498;2023-04-05T01:36:26;102476.13;;;5.24;66.65
72414;BME280;60995;52.154;4.498;2023-04-05T01:38:53;102476.44;;;5.16;66.63
72414;BME280;60995;52.154;4.498;2023-04-05T01:41:16;102475.44;;;5.19;66.16
72414;BME280;60995;52.154;4.498;2023-04-05T01:43:35;102479.03;;;4.97;66.70
72414;BME280;60995;52.154;4.498;2023-04-05T01:46:03;102473.81;;;5.14;67.06
72414;BME280;60995;52.154;4.498;2023-04-05T01:48:31;102462.66;;;5.03;66.62
72414;BME280;60995;52.154;4.498;2023-04-05T01:51:00;102472.19;;;5.10;66.54
72414;BME280;60995;52.154;4.498;2023-04-05T01:53:29;102466.44;;;5.20;66.01
72414;BME280;60995;52.154;4.498;2023-04-05T01:55:48;102462.97;;;5.18;66.07
72414;BME280;60995;52.154;4.498;2023-04-05T01:58:05;102459.19;;;5.00;66.69
72414;BME280;60995;52.154;4.498;2023-04-05T02:05:53;102448.13;;;5.07;66.40
72414;BME280;60995;52.154;4.498;2023-04-05T02:08:26;102446.22;;;5.09;66.27
72414;BME280;60995;52.154;4.498;2023-04-05T02:11:03;102442.28;;;4.96;66.09
72414;BME280;60995;52.154;4.498;2023-04-05T02:17:01;102432.66;;;4.90;66.26
72414;BME280;60995;52.154;4.498;2023-04-05T02:23:17;102427.16;;;4.93;66.12
72414;BME280;60995;52.154;4.498;2023-04-05T02:28:41;102428.53;;;5.04;65.50
72414;BME280;60995;52.154;4.498;2023-04-05T02:33:52;102427.78;;;5.00;65.98
72414;BME280;60995;52.154;4.498;2023-04-05T02:36:11;102416.63;;;5.09;65.62
72414;BME280;60995;52.154;4.498;2023-04-05T02:38:29;102424.59;;;5.12;65.50
72414;BME280;60995;52.154;4.498;2023-04-05T02:40:53;102424.38;;;4.95;65.60
72414;BME280;60995;52.154;4.498;2023-04-05T02:43:28;102415.69;;;4.88;66.11
72414;BME280;60995;52.154;4.498;2023-04-05T02:46:00;102421.16;;;4.87;65.97
72414;BME280;60995;52.154;4.498;2023-04-05T02:48:21;102413.56;;;4.74;66.47
72414;BME280;60995;52.154;4.498;2023-04-05T02:50:51;102415.53;;;4.69;66.59
72414;BME280;60995;52.154;4.498;2023-04-05T02:53:13;102409.59;;;4.61;67.25
72414;BME280;60995;52.154;4.498;2023-04-05T02:55:30;102405.69;;;4.70;67.14
72414;BME280;60995;52.154;4.498;2023-04-05T03:00:58;102409.81;;;4.78;66.37
72414;BME280;60995;52.154;4.498;2023-04-05T03:03:18;102409.75;;;4.80;66.59
72414;BME280;60995;52.154;4.498;2023-04-05T03:08:36;102403.19;;;4.87;65.62
72414;BME280;60995;52.154;4.498;2023-04-05T03:11:06;102406.94;;;4.83;65.91
72414;BME280;60995;52.154;4.498;2023-04-05T03:13:25;102402.78;;;4.74;66.28
72414;BME280;60995;52.154;4.498;2023-04-05T03:15:46;102406.06;;;4.83;66.30
72414;BME280;60995;52.154;4.498;2023-04-05T03:18:43;102406.44;;;4.73;66.04
72414;BME280;60995;52.154;4.498;2023-04-05T03:21:21;102408.31;;;4.71;66.88
72414;BME280;60995;52.154;4.498;2023-04-05T03:24:06;102405.25;;;4.80;66.76
72414;BME280;60995;52.154;4.498;2023-04-05T03:26:28;102404.00;;;4.67;66.13
72414;BME280;60995;52.154;4.498;2023-04-05T03:29:18;102405.22;;;4.58;67.50
72414;BME280;60995;52.154;4.498;2023-04-05T03:31:50;102405.25;;;4.80;66.99
72414;BME280;60995;52.154;4.498;2023-04-05T03:34:10;102400.91;;;4.54;66.98
72414;BME280;60995;52.154;4.498;2023-04-05T03:36:38;102394.31;;;4.39;67.99
72414;BME280;60995;52.154;4.498;2023-04-05T03:38:57;102389.75;;;4.18;68.72
72414;BME280;60995;52.154;4.498;2023-04-05T03:41:13;102379.59;;;4.26;68.83
72414;BME280;60995;52.154;4.498;2023-04-05T03:43:42;102380.94;;;4.38;69.07
72414;BME280;60995;52.154;4.498;2023-04-05T03:46:15;102379.88;;;4.18;68.41
72414;BME280;60995;52.154;4.498;2023-04-05T03:48:48;102381.47;;;4.47;68.64
72414;BME280;60995;52.154;4.498;2023-04-05T03:51:26;102379.16;;;4.37;68.52
72414;BME280;60995;52.154;4.498;2023-04-05T03:54:21;102381.00;;;4.36;68.49
72414;BME280;60995;52.154;4.498;2023-04-05T03:56:45;102381.81;;;4.38;68.62
72414;BME280;60995;52.154;4.498;2023-04-05T03:59:02;102384.66;;;4.34;68.68
72414;BME280;60995;52.154;4.498;2023-04-05T04:01:25;102386.06;;;4.44;68.87
72414;BME280;60995;52.154;4.498;2023-04-05T04:03:42;102388.59;;;4.49;68.77
72414;BME280;60995;52.154;4.498;2023-04-05T04:06:05;102385.94;;;4.47;68.44
72414;BME280;60995;52.154;4.498;2023-04-05T04:08:39;102376.09;;;4.47;68.39
72414;BME280;60995;52.154;4.498;2023-04-05T04:11:05;102380.28;;;4.31;68.79
72414;BME280;60995;52.154;4.498;2023-04-05T04:13:29;102373.50;;;4.21;69.00
72414;BME280;60995;52.154;4.498;2023-04-05T04:15:51;102379.47;;;4.05;69.61
72414;BME280;60995;52.154;4.498;2023-04-05T04:18:13;102377.81;;;4.01;69.77
72414;BME280;60995;52.154;4.498;2023-04-05T04:20:34;102384.09;;;4.02;70.16
72414;BME280;60995;52.154;4.498;2023-04-05T04:23:03;102376.75;;;4.07;69.99
72414;BME280;60995;52.154;4.498;2023-04-05T04:25:24;102371.38;;;4.07;69.75
72414;BME280;60995;52.154;4.498;2023-04-05T04:27:46;102379.25;;;4.11;69.55
72414;BME280;60995;52.154;4.498;2023-04-05T04:30:10;102373.81;;;4.13;69.27
72414;BME280;60995;52.154;4.498;2023-04-05T04:32:30;102369.84;;;4.00;69.31
72414;BME280;60995;52.154;4.498;2023-04-05T04:35:08;102373.91;;;3.86;69.65
72414;BME280;60995;52.154;4.498;2023-04-05T04:37:35;102375.06;;;3.79;69.83
72414;BME280;60995;52.154;4.498;2023-04-05T04:40:04;102372.59;;;3.73;69.88
72414;BME280;60995;52.154;4.498;2023-04-05T04:42:23;102376.66;;;3.85;70.08
72414;BME280;60995;52.154;4.498;2023-04-05T04:44:48;102373.47;;;3.73;70.10
72414;BME280;60995;52.154;4.498;2023-04-05T04:47:08;102381.59;;;3.72;69.76
72414;BME280;60995;52.154;4.498;2023-04-05T04:49:29;102379.13;;;3.66;70.24
72414;BME280;60995;52.154;4.498;2023-04-05T04:51:53;102369.09;;;3.71;69.69
72414;BME280;60995;52.154;4.498;2023-04-05T04:54:22;102377.44;;;3.63;70.24
72414;BME280;60995;52.154;4.498;2023-04-05T04:56:38;102374.34;;;3.74;70.22
72414;BME280;60995;52.154;4.498;2023-04-05T04:58:55;102368.31;;;3.67;69.68
72414;BME280;60995;52.154;4.498;2023-04-05T05:01:12;102373.03;;;3.60;69.74
72414;BME280;60995;52.154;4.498;2023-04-05T05:03:28;102376.97;;;3.75;70.11
72414;BME280;60995;52.154;4.498;2023-04-05T05:05:48;102371.50;;;3.78;69.56
72414;BME280;60995;52.154;4.498;2023-04-05T05:08:06;102369.88;;;3.74;69.88
72414;BME280;60995;52.154;4.498;2023-04-05T05:10:22;102376.09;;;3.75;69.74
72414;BME280;60995;52.154;4.498;2023-04-05T05:12:39;102376.22;;;3.72;69.98
72414;BME280;60995;52.154;4.498;2023-04-05T05:14:55;102374.41;;;3.72;69.83
72414;BME280;60995;52.154;4.498;2023-04-05T05:17:12;102379.72;;;3.74;69.44
72414;BME280;60995;52.154;4.498;2023-04-05T05:19:28;102379.38;;;3.83;69.52
72414;BME280;60995;52.154;4.498;2023-04-05T05:21:44;102384.97;;;4.02;69.10
72414;BME280;60995;52.154;4.498;2023-04-05T05:24:02;102375.97;;;4.03;68.76
72414;BME280;60995;52.154;4.498;2023-04-05T05:26:18;102384.16;;;4.24;68.51
72414;BME280;60995;52.154;4.498;2023-04-05T05:28:34;102376.81;;;4.29;68.34
72414;BME280;60995;52.154;4.498;2023-04-05T05:30:51;102382.47;;;4.45;67.12
72414;BME280;60995;52.154;4.498;2023-04-05T05:33:08;102384.84;;;4.53;66.78
72414;BME280;60995;52.154;4.498;2023-04-05T05:35:24;102391.38;;;4.45;67.01
72414;BME280;60995;52.154;4.498;2023-04-05T05:37:40;102389.22;;;4.55;67.10
72414;BME280;60995;52.154;4.498;2023-04-05T05:39:57;102393.31;;;4.66;66.60
72414;BME280;60995;52.154;4.498;2023-04-05T05:42:13;102388.72;;;4.68;66.15
72414;BME280;60995;52.154;4.498;2023-04-05T05:44:30;102394.88;;;4.71;66.20
72414;BME280;60995;52.154;4.498;2023-04-05T05:46:46;102391.88;;;4.79;65.79
72414;BME280;60995;52.154;4.498;2023-04-05T05:49:02;102397.19;;;4.80;65.78
72414;BME280;60995;52.154;4.498;2023-04-05T05:51:19;102404.00;;;4.89;65.33
72414;BME280;60995;52.154;4.498;2023-04-05T05:53:36;102395.72;;;5.16;65.70
72414;BME280;60995;52.154;4.498;2023-04-05T05:55:53;102392.31;;;5.33;65.09
72414;BME280;60995;52.154;4.498;2023-04-05T05:58:09;102396.78;;;5.55;63.69
72414;BME280;60995;52.154;4.498;2023-04-05T06:00:26;102390.25;;;5.81;63.06
72414;BME280;60995;52.154;4.498;2023-04-05T06:02:42;102387.50;;;6.03;60.57
72414;BME280;60995;52.154;4.498;2023-04-05T06:05:00;102384.03;;;6.01;59.92
72414;BME280;60995;52.154;4.498;2023-04-05T06:07:16;102376.25;;;5.93;60.77
72414;BME280;60995;52.154;4.498;2023-04-05T06:09:33;102378.94;;;6.14;59.22
72414;BME280;60995;52.154;4.498;2023-04-05T06:11:51;102377.06;;;6.35;59.03
72414;BME280;60995;52.154;4.498;2023-04-05T06:14:07;102381.28;;;6.60;58.09
72414;BME280;60995;52.154;4.498;2023-04-05T06:16:24;102381.41;;;6.95;57.41
72414;BME280;60995;52.154;4.498;2023-04-05T06:18:40;102371.91;;;7.05;56.24
72414;BME280;60995;52.154;4.498;2023-04-05T06:20:56;102374.88;;;8.54;56.23
72414;BME280;60995;52.154;4.498;2023-04-05T06:23:13;102363.50;;;11.26;52.04
72414;BME280;60995;52.154;4.498;2023-04-05T06:25:29;102355.66;;;13.60;43.17
72414;BME280;60995;52.154;4.498;2023-04-05T06:27:45;102353.63;;;15.94;38.17
72414;BME280;60995;52.154;4.498;2023-04-05T06:30:02;102351.53;;;17.58;33.65
72414;BME280;60995;52.154;4.498;2023-04-05T06:32:19;102347.59;;;18.55;31.84
72414;BME280;60995;52.154;4.498;2023-04-05T06:34:36;102351.44;;;17.87;31.89
72414;BME280;60995;52.154;4.498;2023-04-05T06:36:52;102347.53;;;19.29;29.77
72414;BME280;60995;52.154;4.498;2023-04-05T06:39:08;102341.22;;;20.07;28.17
72414;BME280;60995;52.154;4.498;2023-04-05T06:41:25;102344.97;;;19.80;27.39
72414;BME280;60995;52.154;4.498;2023-04-05T06:43:42;102349.31;;;18.84;28.49
72414;BME280;60995;52.154;4.498;2023-04-05T06:45:59;102347.56;;;20.34;26.26
72414;BME280;60995;52.154;4.498;2023-04-05T06:48:15;102344.34;;;20.12;25.83
72414;BME280;60995;52.154;4.498;2023-04-05T06:50:31;102339.81;;;18.50;28.02
72414;BME280;60995;52.154;4.498;2023-04-05T06:52:48;102344.75;;;18.09;27.91
72414;BME280;60995;52.154;4.498;2023-04-05T06:55:04;102350.22;;;17.62;29.34
72414;BME280;60995;52.154;4.498;2023-04-05T06:57:21;102351.56;;;18.15;29.12
72414;BME280;60995;52.154;4.498;2023-04-05T06:59:37;102344.19;;;17.19;28.46
72414;BME280;60995;52.154;4.498;2023-04-05T07:01:54;102338.38;;;19.46;28.69
72414;BME280;60995;52.154;4.498;2023-04-05T07:04:11;102344.50;;;19.58;27.36
72414;BME280;60995;52.154;4.498;2023-04-05T07:06:27;102341.34;;;20.83;24.67
72414;BME280;60995;52.154;4.498;2023-04-05T07:08:43;102344.31;;;19.33;25.58
72414;BME280;60995;52.154;4.498;2023-04-05T07:11:00;102346.38;;;20.37;25.24
72414;BME280;60995;52.154;4.498;2023-04-05T07:13:17;102340.38;;;19.18;26.36
72414;BME280;60995;52.154;4.498;2023-04-05T07:15:34;102343.25;;;20.74;24.10
72414;BME280;60995;52.154;4.498;2023-04-05T07:17:51;102341.41;;;20.99;23.72
72414;BME280;60995;52.154;4.498;2023-04-05T07:20:07;102334.09;;;19.26;25.64
72414;BME280;60995;52.154;4.498;2023-04-05T07:22:24;102332.09;;;21.34;23.47
72414;BME280;60995;52.154;4.498;2023-04-05T07:24:40;102338.34;;;20.60;25.49
72414;BME280;60995;52.154;4.498;2023-04-05T07:26:57;102337.91;;;21.96;23.08
72414;BME280;60995;52.154;4.498;2023-04-05T07:29:13;102334.69;;;20.51;24.67
72414;BME280;60995;52.154;4.498;2023-04-05T07:31:30;102335.56;;;21.19;23.67
72414;BME280;60995;52.154;4.498;2023-04-05T07:33:47;102328.13;;;22.96;23.48
72414;BME280;60995;52.154;4.498;2023-04-05T07:36:03;102317.81;;;23.37;20.89
72414;BME280;60995;52.154;4.498;2023-04-05T07:38:20;102321.22;;;22.29;22.67
72414;BME280;60995;52.154;4.498;2023-04-05T07:40:36;102328.63;;;21.89;22.21
72414;BME280;60995;52.154;4.498;2023-04-05T07:42:56;102323.09;;;21.81;23.24
72414;BME280;60995;52.154;4.498;2023-04-05T07:45:12;102323.00;;;22.14;23.26
72414;BME280;60995;52.154;4.498;2023-04-05T07:47:28;102327.03;;;23.29;21.95
72414;BME280;60995;52.154;4.498;2023-04-05T07:49:44;102319.41;;;23.84;21.14
72414;BME280;60995;52.154;4.498;2023-04-05T07:52:01;102320.06;;;23.71;21.32
72414;BME280;60995;52.154;4.498;2023-04-05T07:54:17;102314.16;;;23.89;21.52
72414;BME280;60995;52.154;4.498;2023-04-05T07:56:35;102308.94;;;23.41;21.14
72414;BME280;60995;52.154;4.498;2023-04-05T07:58:53;102313.44;;;21.85;22.95
72414;BME280;60995;52.154;4.498;2023-04-05T08:01:10;102308.56;;;23.98;21.42
72414;BME280;60995;52.154;4.498;2023-04-05T08:03:28;102304.56;;;25.53;20.77
72414;BME280;60995;52.154;4.498;2023-04-05T08:05:44;102305.81;;;24.49;20.34
72414;BME280;60995;52.154;4.498;2023-04-05T08:08:01;102308.56;;;24.27;20.86
72414;BME280;60995;52.154;4.498;2023-04-05T08:10:17;102311.00;;;24.89;19.72
72414;BME280;60995;52.154;4.498;2023-04-05T08:12:34;102321.03;;;20.92;22.77
72414;BME280;60995;52.154;4.498;2023-04-05T08:14:50;102313.16;;;21.55;24.08
72414;BME280;60995;52.154;4.498;2023-04-05T08:17:07;102305.88;;;23.13;21.44
72414;BME280;60995;52.154;4.498;2023-04-05T08:19:23;102299.75;;;25.40;19.40
72414;BME280;60995;52.154;4.498;2023-04-05T08:21:39;102300.16;;;24.94;19.25
72414;BME280;60995;52.154;4.498;2023-04-05T08:23:55;102297.78;;;27.21;18.65
72414;BME280;60995;52.154;4.498;2023-04-05T08:26:13;102302.72;;;25.39;19.30
72414;BME280;60995;52.154;4.498;2023-04-05T08:28:30;102298.03;;;23.40;21.20
72414;BME280;60995;52.154;4.498;2023-04-05T08:30:47;102301.16;;;24.86;20.16
72414;BME280;60995;52.154;4.498;2023-04-05T08:33:07;102290.88;;;25.87;18.47
72414;BME280;60995;52.154;4.498;2023-04-05T08:35:23;102292.47;;;26.51;18.42
72414;BME280;60995;52.154;4.498;2023-04-05T08:37:40;102299.56;;;25.20;19.26
72414;BME280;60995;52.154;4.498;2023-04-05T08:39:56;102299.44;;;24.34;19.77
72414;BME280;60995;52.154;4.498;2023-04-05T08:42:17;102294.84;;;24.63;19.81
72414;BME280;60995;52.154;4.498;2023-04-05T08:44:38;102294.94;;;25.06;18.25
72414;BME280;60995;52.154;4.498;2023-04-05T08:46:57;102293.53;;;24.58;19.52
72414;BME280;60995;52.154;4.498;2023-04-05T08:49:15;102292.88;;;23.37;20.74
72414;BME280;60995;52.154;4.498;2023-04-05T08:51:32;102289.91;;;24.21;20.02
72414;BME280;60995;52.154;4.498;2023-04-05T08:53:52;102292.97;;;24.26;19.27
72414;BME280;60995;52.154;4.498;2023-04-05T08:56:10;102273.63;;;25.63;19.28
72414;BME280;60995;52.154;4.498;2023-04-05T08:58:34;102283.59;;;28.03;16.36
72414;BME280;60995;52.154;4.498;2023-04-05T09:00:54;102286.44;;;26.41;17.42
72414;BME280;60995;52.154;4.498;2023-04-05T09:03:16;102284.69;;;25.56;17.55
72414;BME280;60995;52.154;4.498;2023-04-05T09:05:35;102276.78;;;26.99;17.23
72414;BME280;60995;52.154;4.498;2023-04-05T09:07:56;102284.69;;;25.56;17.84
72414;BME280;60995;52.154;4.498;2023-04-05T09:10:13;102293.09;;;24.91;18.31
72414;BME280;60995;52.154;4.498;2023-04-05T09:12:31;102289.16;;;23.06;19.73
72414;BME280;60995;52.154;4.498;2023-04-05T09:14:48;102283.31;;;24.96;19.00
72414;BME280;60995;52.154;4.498;2023-04-05T09:17:05;102288.66;;;26.52;17.39
72414;BME280;60995;52.154;4.498;2023-04-05T09:19:21;102280.59;;;25.02;17.97
72414;BME280;60995;52.154;4.498;2023-04-05T09:21:58;102280.50;;;25.17;18.17
72414;BME280;60995;52.154;4.498;2023-04-05T09:24:29;102272.06;;;26.93;16.29
72414;BME280;60995;52.154;4.498;2023-04-05T09:27:03;102268.63;;;25.30;17.89
72414;BME280;60995;52.154;4.498;2023-04-05T09:29:28;102272.69;;;25.49;16.98
72414;BME280;60995;52.154;4.498;2023-04-05T09:31:45;102267.66;;;25.38;17.26
72414;BME280;60995;52.154;4.498;2023-04-05T09:34:02;102266.63;;;26.64;15.83
72414;BME280;60995;52.154;4.498;2023-04-05T09:36:20;102260.59;;;28.08;14.38
72414;BME280;60995;52.154;4.498;2023-04-05T09:38:46;102267.88;;;25.65;16.04
72414;BME280;60995;52.154;4.498;2023-04-05T09:41:07;102268.97;;;24.04;16.42
72414;BME280;60995;52.154;4.498;2023-04-05T09:43:36;102271.34;;;21.58;18.92
72414;BME280;60995;52.154;4.498;2023-04-05T09:45:54;102273.16;;;22.30;18.97
72414;BME280;60995;52.154;4.498;2023-04-05T09:48:10;102274.47;;;21.14;18.72
72414;BME280;60995;52.154;4.498;2023-04-05T09:50:29;102271.63;;;22.36;18.24
72414;BME280;60995;52.154;4.498;2023-04-05T09:52:45;102271.78;;;21.95;18.77
72414;BME280;60995;52.154;4.498;2023-04-05T09:55:03;102269.97;;;22.82;18.82
72414;BME280;60995;52.154;4.498;2023-04-05T09:57:23;102269.34;;;24.67;16.85
72414;BME280;60995;52.154;4.498;2023-04-05T09:59:47;102263.16;;;24.50;17.40
72414;BME280;60995;52.154;4.498;2023-04-05T10:02:03;102273.63;;;20.29;20.80
72414;BME280;60995;52.154;4.498;2023-04-05T10:04:20;102261.88;;;21.36;20.88
72414;BME280;60995;52.154;4.498;2023-04-05T10:06:39;102255.69;;;21.18;20.52
72414;BME280;60995;52.154;4.498;2023-04-05T10:08:57;102251.69;;;22.49;18.61
72414;BME280;60995;52.154;4.498;2023-04-05T10:11:17;102255.28;;;21.78;20.07
72414;BME280;60995;52.154;4.498;2023-04-05T10:13:34;102253.78;;;21.99;18.98
72414;BME280;60995;52.154;4.498;2023-04-05T10:15:53;102260.00;;;20.28;20.86
72414;BME280;60995;52.154;4.498;2023-04-05T10:18:17;102258.66;;;18.92;21.17
72414;BME280;60995;52.154;4.498;2023-04-05T10:20:39;102252.31;;;18.28;22.51
72414;BME280;60995;52.154;4.498;2023-04-05T10:23:07;102243.25;;;21.30;20.47
72414;BME280;60995;52.154;4.498;2023-04-05T10:25:42;102247.91;;;22.42;19.17
72414;BME280;60995;52.154;4.498;2023-04-05T10:28:09;102248.22;;;21.43;20.42
72414;BME280;60995;52.154;4.498;2023-04-05T10:30:42;102243.03;;;22.75;18.87
72414;BME280;60995;52.154;4.498;2023-04-05T10:33:21;102240.16;;;20.16;21.21
72414;BME280;60995;52.154;4.498;2023-04-05T10:38:24;102245.22;;;21.86;20.41
72414;BME280;60995;52.154;4.498;2023-04-05T10:40:45;102244.78;;;21.41;20.56
72414;BME280;60995;52.154;4.498;2023-04-05T10:43:06;102238.69;;;21.70;20.08
72414;BME280;60995;52.154;4.498;2023-04-05T10:45:32;102235.00;;;23.04;18.94
72414;BME280;60995;52.154;4.498;2023-04-05T10:48:21;102231.81;;;22.06;18.99
72414;BME280;60995;52.154;4.498;2023-04-05T10:50:49;102233.94;;;21.31;19.60
72414;BME280;60995;52.154;4.498;2023-04-05T10:53:06;102227.78;;;21.85;20.24
72414;BME280;60995;52.154;4.498;2023-04-05T10:55:25;102218.56;;;21.45;20.11
72414;BME280;60995;52.154;4.498;2023-04-05T10:57:43;102217.16;;;21.57;20.19
72414;BME280;60995;52.154;4.498;2023-04-05T11:00:01;102223.09;;;21.21;20.80
72414;BME280;60995;52.154;4.498;2023-04-05T11:02:18;102227.28;;;19.82;22.47
72414;BME280;60995;52.154;4.498;2023-04-05T11:04:34;102219.81;;;21.18;20.91
72414;BME280;60995;52.154;4.498;2023-04-05T11:07:16;102222.16;;;22.02;20.08
72414;BME280;60995;52.154;4.498;2023-04-05T11:09:34;102225.81;;;21.29;20.43
72414;BME280;60995;52.154;4.498;2023-04-05T11:11:51;102207.16;;;21.40;20.20
72414;BME280;60995;52.154;4.498;2023-04-05T11:14:50;102209.63;;;22.77;19.02
72414;BME280;60995;52.154;4.498;2023-04-05T11:16:59;102208.84;;;22.45;18.79
72414;BME280;60995;52.154;4.498;2023-04-05T11:19:16;102208.19;;;22.35;19.68
72414;BME280;60995;52.154;4.498;2023-04-05T11:21:32;102203.59;;;21.06;20.26
72414;BME280;60995;52.154;4.498;2023-04-05T11:24:08;102207.16;;;20.32;21.67
72414;BME280;60995;52.154;4.498;2023-04-05T11:26:32;102208.25;;;20.73;22.12
72414;BME280;60995;52.154;4.498;2023-04-05T11:29:09;102207.59;;;20.11;22.65
72414;BME280;60995;52.154;4.498;2023-04-05T11:31:26;102205.50;;;20.97;21.06
72414;BME280;60995;52.154;4.498;2023-04-05T11:36:05;102198.91;;;20.41;21.37
72414;BME280;60995;52.154;4.498;2023-04-05T11:38:21;102200.50;;;19.92;21.80
72414;BME280;60995;52.154;4.498;2023-04-05T11:40:38;102197.50;;;18.26;23.72
72414;BME280;60995;52.154;4.498;2023-04-05T11:43:03;102191.78;;;17.54;24.87
72414;BME280;60995;52.154;4.498;2023-04-05T11:45:22;102192.38;;;17.48;25.63
72414;BME280;60995;52.154;4.498;2023-04-05T11:47:38;102192.66;;;17.07;25.47
72414;BME280;60995;52.154;4.498;2023-04-05T11:49:56;102195.91;;;15.93;27.25
72414;BME280;60995;52.154;4.498;2023-04-05T11:52:14;102193.56;;;15.88;27.72
72414;BME280;60995;52.154;4.498;2023-04-05T11:54:32;102178.56;;;17.30;26.11
72414;BME280;60995;52.154;4.498;2023-04-05T11:56:52;102176.03;;;17.09;26.34
72414;BME280;60995;52.154;4.498;2023-04-05T11:59:12;102179.25;;;16.35;27.43
72414;BME280;60995;52.154;4.498;2023-04-05T12:01:28;102178.63;;;16.12;27.71
72414;BME280;60995;52.154;4.498;2023-04-05T12:03:52;102160.06;;;16.94;26.30
72414;BME280;60995;52.154;4.498;2023-04-05T12:06:09;102161.69;;;18.18;24.95
72414;BME280;60995;52.154;4.498;2023-04-05T12:08:45;102158.97;;;17.90;26.31
72414;BME280;60995;52.154;4.498;2023-04-05T12:11:11;102168.56;;;16.62;27.73
72414;BME280;60995;52.154;4.498;2023-04-05T12:13:29;102167.69;;;16.81;27.23
72414;BME280;60995;52.154;4.498;2023-04-05T12:15:47;102159.84;;;17.15;27.18
72414;BME280;60995;52.154;4.498;2023-04-05T12:18:04;102162.25;;;17.66;26.12
72414;BME280;60995;52.154;4.498;2023-04-05T12:20:24;102159.69;;;18.82;25.07
72414;BME280;60995;52.154;4.498;2023-04-05T12:22:44;102151.56;;;19.17;24.26
72414;BME280;60995;52.154;4.498;2023-04-05T12:25:04;102150.09;;;18.24;24.60
72414;BME280;60995;52.154;4.498;2023-04-05T12:27:21;102156.34;;;17.98;25.81
72414;BME280;60995;52.154;4.498;2023-04-05T12:29:37;102148.78;;;17.45;27.04
72414;BME280;60995;52.154;4.498;2023-04-05T12:31:54;102146.91;;;17.45;26.83
72414;BME280;60995;52.154;4.498;2023-04-05T12:34:12;102145.06;;;17.36;26.03
72414;BME280;60995;52.154;4.498;2023-04-05T12:36:30;102147.03;;;17.16;26.53
72414;BME280;60995;52.154;4.498;2023-04-05T12:38:47;102141.66;;;17.24;25.76
72414;BME280;60995;52.154;4.498;2023-04-05T12:41:03;102150.97;;;16.64;26.90
72414;BME280;60995;52.154;4.498;2023-04-05T12:43:20;102131.06;;;16.92;27.04
72414;BME280;60995;52.154;4.498;2023-04-05T12:45:36;102146.34;;;16.94;27.20
72414;BME280;60995;52.154;4.498;2023-04-05T12:47:57;102139.75;;;16.38;27.82
72414;BME280;60995;52.154;4.498;2023-04-05T12:50:16;102126.75;;;16.60;26.67
72414;BME280;60995;52.154;4.498;2023-04-05T12:52:33;102120.00;;;16.25;28.29
72414;BME280;60995;52.154;4.498;2023-04-05T12:54:53;102124.84;;;16.99;29.44
72414;BME280;60995;52.154;4.498;2023-04-05T12:57:10;102127.00;;;16.86;30.14
72414;BME280;60995;52.154;4.498;2023-04-05T12:59:27;102126.03;;;17.25;29.21
72414;BME280;60995;52.154;4.498;2023-04-05T13:01:44;102118.03;;;17.41;28.69
72414;BME280;60995;52.154;4.498;2023-04-05T13:04:00;102114.34;;;17.60;28.98